sensor_id;sensor_type;location;lat;lon;timestamp;P1;durP1;ratioP1;P2;durP2;ratioP2
16039;SDS011;8124;48.634;8.120;2023-03-01T00:04:57;46.93;;;36.50;;
16039;SDS011;8124;48.634;8.120;2023-03-01T00:10:00;39.57;;;35.27;;
16039;SDS011;8124;48.634;8.120;2023-03-01T00:15:05;41.00;;;36.30;;
16039;SDS011;8124;48.634;8.120;2023-03-01T00:20:09;40.23;;;35.70;;
16039;SDS011;8124;48.634;8.120;2023-03-01T00:25:13;41.13;;;35.83;;
16039;SDS011;8124;48.634;8.120;2023-03-01T00:30:17;41.13;;;35.67;;
16039;SDS011;8124;48.634;8.120;2023-03-01T00:35:20;40.53;;;36.10;;
16039;SDS011;8124;48.634;8.120;2023-03-01T00:40:24;40.33;;;35.43;;
16039;SDS011;8124;48.634;8.120;2023-03-01T00:45:28;44.87;;;35.97;;
16039;SDS011;8124;48.634;8.120;2023-03-01T00:50:32;41.40;;;36.27;;
16039;SDS011;8124;48.634;8.120;2023-03-01T00:55:36;41.83;;;35.37;;
16039;SDS011;8124;48.634;8.120;2023-03-01T01:00:41;42.70;;;35.77;;
16039;SDS011;8124;48.634;8.120;2023-03-01T01:05:44;42.97;;;36.63;;
16039;SDS011;8124;48.634;8.120;2023-03-01T01:10:47;41.10;;;36.47;;
16039;SDS011;8124;48.634;8.120;2023-03-01T01:15:51;40.73;;;35.90;;
16039;SDS011;8124;48.634;8.120;2023-03-01T01:20:54;44.00;;;36.50;;
16039;SDS011;8124;48.634;8.120;2023-03-01T01:25:57;44.93;;;37.17;;
16039;SDS011;8124;48.634;8.120;2023-03-01T01:31:03;43.90;;;35.77;;
16039;SDS011;8124;48.634;8.120;2023-03-01T01:36:07;42.27;;;36.27;;
16039;SDS011;8124;48.634;8.120;2023-03-01T01:41:11;51.03;;;43.37;;
16039;SDS011;8124;48.634;8.120;2023-03-01T01:46:18;47.03;;;37.90;;
16039;SDS011;8124;48.634;8.120;2023-03-01T01:51:27;40.53;;;36.13;;
16039;SDS011;8124;48.634;8.120;2023-03-01T01:56:39;42.00;;;36.17;;
16039;SDS011;8124;48.634;8.120;2023-03-01T02:01:46;44.70;;;35.80;;
16039;SDS011;8124;48.634;8.120;2023-03-01T02:06:49;41.90;;;36.33;;
16039;SDS011;8124;48.634;8.120;2023-03-01T02:11:58;40.70;;;35.90;;
16039;SDS011;8124;48.634;8.120;2023-03-01T02:17:02;44.57;;;36.37;;
16039;SDS011;8124;48.634;8.120;2023-03-01T02:22:07;45.03;;;38.67;;
16039;SDS011;8124;48.634;8.120;2023-03-01T02:27:22;42.07;;;36.10;;
16039;SDS011;8124;48.634;8.120;2023-03-01T02:32:31;41.47;;;36.27;;
16039;SDS011;8124;48.634;8.120;2023-03-01T02:37:34;41.13;;;36.30;;
16039;SDS011;8124;48.634;8.120;2023-03-01T02:42:40;42.03;;;36.83;;
16039;SDS011;8124;48.634;8.120;2023-03-01T02:47:52;43.43;;;37.00;;
16039;SDS011;8124;48.634;8.120;2023-03-01T02:52:56;40.40;;;36.00;;
16039;SDS011;8124;48.634;8.120;2023-03-01T02:58:05;42.23;;;36.67;;
16039;SDS011;8124;48.634;8.120;2023-03-01T03:03:10;41.53;;;36.17;;
16039;SDS011;8124;48.634;8.120;2023-03-01T03:08:15;40.50;;;35.90;;
16039;SDS011;8124;48.634;8.120;2023-03-01T03:13:28;41.37;;;35.80;;
16039;SDS011;8124;48.634;8.120;2023-03-01T03:18:32;40.67;;;36.07;;
16039;SDS011;8124;48.634;8.120;2023-03-01T03:23:35;42.33;;;36.77;;
16039;SDS011;8124;48.634;8.120;2023-03-01T03:28:38;39.97;;;35.30;;
16039;SDS011;8124;48.634;8.120;2023-03-01T03:33:43;44.73;;;36.37;;
16039;SDS011;8124;48.634;8.120;2023-03-01T03:38:46;43.17;;;35.83;;
16039;SDS011;8124;48.634;8.120;2023-03-01T03:43:50;43.87;;;36.73;;
16039;SDS011;8124;48.634;8.120;2023-03-01T03:48:55;43.17;;;36.70;;
16039;SDS011;8124;48.634;8.120;2023-03-01T03:53:58;42.20;;;36.40;;
16039;SDS011;8124;48.634;8.120;2023-03-01T03:59:00;41.10;;;36.60;;
16039;SDS011;8124;48.634;8.120;2023-03-01T04:04:05;40.97;;;36.37;;
16039;SDS011;8124;48.634;8.120;2023-03-01T04:09:09;42.00;;;36.47;;
16039;SDS011;8124;48.634;8.120;2023-03-01T04:14:12;41.53;;;36.03;;
16039;SDS011;8124;48.634;8.120;2023-03-01T04:19:17;43.07;;;36.47;;
16039;SDS011;8124;48.634;8.120;2023-03-01T04:24:19;44.23;;;37.03;;
16039;SDS011;8124;48.634;8.120;2023-03-01T04:29:24;42.10;;;36.13;;
16039;SDS011;8124;48.634;8.120;2023-03-01T04:34:29;40.73;;;36.20;;
16039;SDS011;8124;48.634;8.120;2023-03-01T04:39:32;41.37;;;35.93;;
16039;SDS011;8124;48.634;8.120;2023-03-01T04:44:44;45.23;;;36.13;;
16039;SDS011;8124;48.634;8.120;2023-03-01T04:49:49;42.27;;;36.60;;
16039;SDS011;8124;48.634;8.120;2023-03-01T04:54:51;59.60;;;43.13;;
16039;SDS011;8124;48.634;8.120;2023-03-01T04:59:54;84.27;;;53.03;;
16039;SDS011;8124;48.634;8.120;2023-03-01T05:04:59;42.00;;;37.40;;
16039;SDS011;8124;48.634;8.120;2023-03-01T05:10:01;44.37;;;38.40;;
16039;SDS011;8124;48.634;8.120;2023-03-01T05:15:06;48.87;;;39.53;;
16039;SDS011;8124;48.634;8.120;2023-03-01T05:20:11;48.47;;;38.83;;
16039;SDS011;8124;48.634;8.120;2023-03-01T05:25:14;46.93;;;38.47;;
16039;SDS011;8124;48.634;8.120;2023-03-01T05:30:18;44.67;;;37.00;;
16039;SDS011;8124;48.634;8.120;2023-03-01T05:35:22;44.10;;;36.00;;
16039;SDS011;8124;48.634;8.120;2023-03-01T05:40:26;42.90;;;38.23;;
16039;SDS011;8124;48.634;8.120;2023-03-01T05:45:31;48.03;;;38.33;;
16039;SDS011;8124;48.634;8.120;2023-03-01T05:50:38;43.67;;;37.07;;
16039;SDS011;8124;48.634;8.120;2023-03-01T05:55:43;41.83;;;37.30;;
16039;SDS011;8124;48.634;8.120;2023-03-01T06:00:48;42.87;;;36.37;;
16039;SDS011;8124;48.634;8.120;2023-03-01T06:05:57;43.27;;;37.40;;
16039;SDS011;8124;48.634;8.120;2023-03-01T06:11:00;43.57;;;37.60;;
16039;SDS011;8124;48.634;8.120;2023-03-01T06:16:05;49.40;;;38.60;;
16039;SDS011;8124;48.634;8.120;2023-03-01T06:21:09;45.67;;;38.53;;
16039;SDS011;8124;48.634;8.120;2023-03-01T06:26:12;46.50;;;38.30;;
16039;SDS011;8124;48.634;8.120;2023-03-01T06:31:15;46.87;;;38.73;;
16039;SDS011;8124;48.634;8.120;2023-03-01T06:36:20;42.20;;;37.60;;
16039;SDS011;8124;48.634;8.120;2023-03-01T06:41:23;47.37;;;37.87;;
16039;SDS011;8124;48.634;8.120;2023-03-01T06:46:26;42.73;;;37.20;;
16039;SDS011;8124;48.634;8.120;2023-03-01T06:51:31;42.67;;;37.90;;
16039;SDS011;8124;48.634;8.120;2023-03-01T06:56:34;45.80;;;38.03;;
16039;SDS011;8124;48.634;8.120;2023-03-01T07:01:37;45.43;;;38.60;;
16039;SDS011;8124;48.634;8.120;2023-03-01T07:06:41;45.13;;;39.30;;
16039;SDS011;8124;48.634;8.120;2023-03-01T07:11:44;49.27;;;41.03;;
16039;SDS011;8124;48.634;8.120;2023-03-01T07:16:49;46.17;;;39.13;;
16039;SDS011;8124;48.634;8.120;2023-03-01T07:21:53;46.07;;;39.80;;
16039;SDS011;8124;48.634;8.120;2023-03-01T07:26:57;46.37;;;37.63;;
16039;SDS011;8124;48.634;8.120;2023-03-01T07:32:00;46.47;;;39.67;;
16039;SDS011;8124;48.634;8.120;2023-03-01T07:37:04;50.63;;;40.47;;
16039;SDS011;8124;48.634;8.120;2023-03-01T07:42:07;50.33;;;41.83;;
16039;SDS011;8124;48.634;8.120;2023-03-01T07:47:10;47.03;;;39.77;;
16039;SDS011;8124;48.634;8.120;2023-03-01T07:52:14;48.47;;;40.63;;
16039;SDS011;8124;48.634;8.120;2023-03-01T07:57:17;46.73;;;40.10;;
16039;SDS011;8124;48.634;8.120;2023-03-01T08:02:20;49.30;;;39.80;;
16039;SDS011;8124;48.634;8.120;2023-03-01T08:07:24;49.67;;;40.80;;
16039;SDS011;8124;48.634;8.120;2023-03-01T08:12:27;48.33;;;39.70;;
16039;SDS011;8124;48.634;8.120;2023-03-01T08:17:31;49.90;;;39.80;;
16039;SDS011;8124;48.634;8.120;2023-03-01T08:22:35;50.17;;;39.47;;
16039;SDS011;8124;48.634;8.120;2023-03-01T08:27:38;48.97;;;40.10;;
16039;SDS011;8124;48.634;8.120;2023-03-01T08:32:41;50.13;;;39.47;;
16039;SDS011;8124;48.634;8.120;2023-03-01T08:37:46;49.80;;;40.50;;
16039;SDS011;8124;48.634;8.120;2023-03-01T08:42:49;50.67;;;40.57;;
16039;SDS011;8124;48.634;8.120;2023-03-01T08:47:53;49.30;;;40.47;;
16039;SDS011;8124;48.634;8.120;2023-03-01T08:52:57;50.10;;;40.60;;
16039;SDS011;8124;48.634;8.120;2023-03-01T08:58:00;46.87;;;38.13;;
16039;SDS011;8124;48.634;8.120;2023-03-01T09:03:03;48.53;;;39.43;;
16039;SDS011;8124;48.634;8.120;2023-03-01T09:08:08;50.80;;;40.90;;
16039;SDS011;8124;48.634;8.120;2023-03-01T09:13:11;50.97;;;41.27;;
16039;SDS011;8124;48.634;8.120;2023-03-01T09:18:18;49.57;;;41.33;;
16039;SDS011;8124;48.634;8.120;2023-03-01T09:23:22;51.77;;;40.37;;
16039;SDS011;8124;48.634;8.120;2023-03-01T09:28:25;48.73;;;40.20;;
16039;SDS011;8124;48.634;8.120;2023-03-01T09:33:31;50.03;;;40.60;;
16039;SDS011;8124;48.634;8.120;2023-03-01T09:38:36;47.80;;;39.53;;
16039;SDS011;8124;48.634;8.120;2023-03-01T09:43:40;49.57;;;41.03;;
16039;SDS011;8124;48.634;8.120;2023-03-01T09:48:48;41.83;;;35.83;;
16039;SDS011;8124;48.634;8.120;2023-03-01T09:53:56;52.03;;;41.27;;
16039;SDS011;8124;48.634;8.120;2023-03-01T09:59:04;49.97;;;40.67;;
16039;SDS011;8124;48.634;8.120;2023-03-01T10:04:28;51.27;;;40.63;;
16039;SDS011;8124;48.634;8.120;2023-03-01T10:09:41;47.27;;;38.80;;
16039;SDS011;8124;48.634;8.120;2023-03-01T10:14:48;51.57;;;41.00;;
16039;SDS011;8124;48.634;8.120;2023-03-01T10:19:56;48.10;;;40.47;;
16039;SDS011;8124;48.634;8.120;2023-03-01T10:25:14;48.83;;;39.40;;
16039;SDS011;8124;48.634;8.120;2023-03-01T10:30:28;49.40;;;40.93;;
16039;SDS011;8124;48.634;8.120;2023-03-01T10:35:36;54.03;;;41.83;;
16039;SDS011;8124;48.634;8.120;2023-03-01T10:40:51;52.13;;;42.13;;
16039;SDS011;8124;48.634;8.120;2023-03-01T10:45:56;51.97;;;39.67;;
16039;SDS011;8124;48.634;8.120;2023-03-01T10:51:05;50.77;;;40.70;;
16039;SDS011;8124;48.634;8.120;2023-03-01T10:56:11;42.03;;;36.50;;
16039;SDS011;8124;48.634;8.120;2023-03-01T11:06:37;51.47;;;39.17;;
16039;SDS011;8124;48.634;8.120;2023-03-01T11:11:43;52.97;;;41.53;;
16039;SDS011;8124;48.634;8.120;2023-03-01T11:16:48;52.70;;;38.60;;
16039;SDS011;8124;48.634;8.120;2023-03-01T11:22:01;52.77;;;42.73;;
16039;SDS011;8124;48.634;8.120;2023-03-01T11:27:11;54.10;;;43.03;;
16039;SDS011;8124;48.634;8.120;2023-03-01T11:32:19;50.60;;;40.97;;
16039;SDS011;8124;48.634;8.120;2023-03-01T11:37:30;52.47;;;41.87;;
16039;SDS011;8124;48.634;8.120;2023-03-01T11:47:58;54.90;;;40.63;;
16039;SDS011;8124;48.634;8.120;2023-03-01T11:53:48;51.50;;;41.67;;
16039;SDS011;8124;48.634;8.120;2023-03-01T11:59:06;54.13;;;41.03;;
16039;SDS011;8124;48.634;8.120;2023-03-01T12:15:34;52.57;;;42.37;;
16039;SDS011;8124;48.634;8.120;2023-03-01T12:20:57;45.40;;;38.20;;
16039;SDS011;8124;48.634;8.120;2023-03-01T12:26:05;47.53;;;40.15;;
16039;SDS011;8124;48.634;8.120;2023-03-01T12:31:20;47.60;;;39.10;;
16039;SDS011;8124;48.634;8.120;2023-03-01T12:36:48;52.83;;;42.40;;
16039;SDS011;8124;48.634;8.120;2023-03-01T12:42:03;51.47;;;41.17;;
16039;SDS011;8124;48.634;8.120;2023-03-01T12:47:35;52.80;;;43.50;;
16039;SDS011;8124;48.634;8.120;2023-03-01T12:52:47;53.45;;;40.50;;
16039;SDS011;8124;48.634;8.120;2023-03-01T12:57:53;51.38;;;41.97;;
16039;SDS011;8124;48.634;8.120;2023-03-01T13:03:09;51.63;;;41.70;;
16039;SDS011;8124;48.634;8.120;2023-03-01T13:08:24;52.38;;;39.58;;
16039;SDS011;8124;48.634;8.120;2023-03-01T13:13:35;51.63;;;40.65;;
16039;SDS011;8124;48.634;8.120;2023-03-01T13:18:39;50.17;;;40.38;;
16039;SDS011;8124;48.634;8.120;2023-03-01T13:23:43;42.38;;;36.28;;
16039;SDS011;8124;48.634;8.120;2023-03-01T13:28:51;52.60;;;42.33;;
16039;SDS011;8124;48.634;8.120;2023-03-01T13:33:58;50.58;;;39.65;;
16039;SDS011;8124;48.634;8.120;2023-03-01T13:39:02;54.92;;;40.45;;
16039;SDS011;8124;48.634;8.120;2023-03-01T13:44:11;50.20;;;37.42;;
16039;SDS011;8124;48.634;8.120;2023-03-01T13:49:18;55.47;;;42.58;;
16039;SDS011;8124;48.634;8.120;2023-03-01T13:54:25;50.53;;;40.45;;
16039;SDS011;8124;48.634;8.120;2023-03-01T13:59:31;53.83;;;40.22;;
16039;SDS011;8124;48.634;8.120;2023-03-01T14:04:35;55.97;;;41.25;;
16039;SDS011;8124;48.634;8.120;2023-03-01T14:09:39;52.28;;;40.55;;
16039;SDS011;8124;48.634;8.120;2023-03-01T14:14:46;45.53;;;38.53;;
16039;SDS011;8124;48.634;8.120;2023-03-01T14:19:56;54.30;;;43.13;;
16039;SDS011;8124;48.634;8.120;2023-03-01T14:25:02;38.58;;;34.05;;
16039;SDS011;8124;48.634;8.120;2023-03-01T14:30:17;45.67;;;38.60;;
16039;SDS011;8124;48.634;8.120;2023-03-01T14:35:27;50.33;;;41.78;;
16039;SDS011;8124;48.634;8.120;2023-03-01T14:40:34;53.38;;;42.95;;
16039;SDS011;8124;48.634;8.120;2023-03-01T14:45:39;51.88;;;40.85;;
16039;SDS011;8124;48.634;8.120;2023-03-01T14:50:50;47.13;;;38.53;;
16039;SDS011;8124;48.634;8.120;2023-03-01T14:55:54;51.55;;;43.08;;
16039;SDS011;8124;48.634;8.120;2023-03-01T15:00:59;51.08;;;42.08;;
16039;SDS011;8124;48.634;8.120;2023-03-01T15:06:06;49.58;;;41.20;;
16039;SDS011;8124;48.634;8.120;2023-03-01T15:11:17;53.35;;;42.60;;
16039;SDS011;8124;48.634;8.120;2023-03-01T15:16:24;56.70;;;43.42;;
16039;SDS011;8124;48.634;8.120;2023-03-01T15:21:31;54.78;;;44.33;;
16039;SDS011;8124;48.634;8.120;2023-03-01T15:26:37;52.38;;;42.35;;
16039;SDS011;8124;48.634;8.120;2023-03-01T15:31:53;54.55;;;43.17;;
16039;SDS011;8124;48.634;8.120;2023-03-01T15:36:58;50.92;;;42.85;;
16039;SDS011;8124;48.634;8.120;2023-03-01T15:42:03;53.17;;;40.65;;
16039;SDS011;8124;48.634;8.120;2023-03-01T15:47:08;53.00;;;43.08;;
16039;SDS011;8124;48.634;8.120;2023-03-01T15:52:28;54.50;;;42.30;;
16039;SDS011;8124;48.634;8.120;2023-03-01T15:57:36;51.40;;;42.58;;
16039;SDS011;8124;48.634;8.120;2023-03-01T16:02:41;54.90;;;44.25;;
16039;SDS011;8124;48.634;8.120;2023-03-01T16:07:47;52.85;;;42.33;;
16039;SDS011;8124;48.634;8.120;2023-03-01T16:12:50;53.58;;;43.17;;
16039;SDS011;8124;48.634;8.120;2023-03-01T16:17:54;54.50;;;42.42;;
16039;SDS011;8124;48.634;8.120;2023-03-01T16:23:00;49.25;;;39.55;;
16039;SDS011;8124;48.634;8.120;2023-03-01T16:28:06;51.55;;;40.90;;
16039;SDS011;8124;48.634;8.120;2023-03-01T16:33:11;52.28;;;41.20;;
16039;SDS011;8124;48.634;8.120;2023-03-01T16:38:35;52.85;;;41.42;;
16039;SDS011;8124;48.634;8.120;2023-03-01T16:43:43;53.35;;;42.85;;
16039;SDS011;8124;48.634;8.120;2023-03-01T16:48:48;52.92;;;44.13;;
16039;SDS011;8124;48.634;8.120;2023-03-01T16:53:53;52.97;;;42.63;;
16039;SDS011;8124;48.634;8.120;2023-03-01T16:58:56;51.83;;;44.20;;
16039;SDS011;8124;48.634;8.120;2023-03-01T17:04:00;53.35;;;42.72;;
16039;SDS011;8124;48.634;8.120;2023-03-01T17:09:04;52.47;;;42.35;;
16039;SDS011;8124;48.634;8.120;2023-03-01T17:14:07;50.03;;;41.60;;
16039;SDS011;8124;48.634;8.120;2023-03-01T17:19:13;49.67;;;41.00;;
16039;SDS011;8124;48.634;8.120;2023-03-01T17:24:20;54.65;;;43.13;;
16039;SDS011;8124;48.634;8.120;2023-03-01T17:29:23;53.38;;;42.33;;
16039;SDS011;8124;48.634;8.120;2023-03-01T17:34:26;53.95;;;41.70;;
16039;SDS011;8124;48.634;8.120;2023-03-01T17:39:30;55.42;;;43.28;;
16039;SDS011;8124;48.634;8.120;2023-03-01T17:44:36;51.17;;;42.03;;
16039;SDS011;8124;48.634;8.120;2023-03-01T17:49:47;55.40;;;42.45;;
16039;SDS011;8124;48.634;8.120;2023-03-01T17:54:51;52.58;;;42.75;;
16039;SDS011;8124;48.634;8.120;2023-03-01T17:59:54;54.42;;;43.00;;
16039;SDS011;8124;48.634;8.120;2023-03-01T18:04:57;60.70;;;49.63;;
16039;SDS011;8124;48.634;8.120;2023-03-01T18:10:03;57.08;;;44.70;;
16039;SDS011;8124;48.634;8.120;2023-03-01T18:15:07;54.47;;;44.42;;
16039;SDS011;8124;48.634;8.120;2023-03-01T18:20:10;54.08;;;44.22;;
16039;SDS011;8124;48.634;8.120;2023-03-01T18:25:17;53.22;;;43.15;;
16039;SDS011;8124;48.634;8.120;2023-03-01T18:30:20;58.67;;;44.15;;
16039;SDS011;8124;48.634;8.120;2023-03-01T18:35:23;55.03;;;43.72;;
16039;SDS011;8124;48.634;8.120;2023-03-01T18:40:28;55.38;;;43.55;;
16039;SDS011;8124;48.634;8.120;2023-03-01T18:45:32;52.42;;;42.85;;
16039;SDS011;8124;48.634;8.120;2023-03-01T18:50:36;58.53;;;44.97;;
16039;SDS011;8124;48.634;8.120;2023-03-01T18:55:41;53.13;;;43.83;;
16039;SDS011;8124;48.634;8.120;2023-03-01T19:00:45;55.10;;;42.60;;
16039;SDS011;8124;48.634;8.120;2023-03-01T19:05:50;50.05;;;41.25;;
16039;SDS011;8124;48.634;8.120;2023-03-01T19:10:56;51.67;;;42.55;;
16039;SDS011;8124;48.634;8.120;2023-03-01T19:16:01;51.42;;;41.45;;
16039;SDS011;8124;48.634;8.120;2023-03-01T19:21:06;52.40;;;43.80;;
16039;SDS011;8124;48.634;8.120;2023-03-01T19:26:12;56.42;;;43.50;;
16039;SDS011;8124;48.634;8.120;2023-03-01T19:31:17;58.70;;;44.50;;
16039;SDS011;8124;48.634;8.120;2023-03-01T19:36:24;57.33;;;45.47;;
16039;SDS011;8124;48.634;8.120;2023-03-01T19:41:34;56.65;;;44.78;;
16039;SDS011;8124;48.634;8.120;2023-03-01T19:46:37;55.17;;;43.28;;
16039;SDS011;8124;48.634;8.120;2023-03-01T19:51:41;50.80;;;41.50;;
16039;SDS011;8124;48.634;8.120;2023-03-01T19:56:45;52.25;;;42.70;;
16039;SDS011;8124;48.634;8.120;2023-03-01T20:01:48;51.45;;;43.25;;
16039;SDS011;8124;48.634;8.120;2023-03-01T20:06:51;53.90;;;43.20;;
16039;SDS011;8124;48.634;8.120;2023-03-01T20:11:57;54.08;;;43.05;;
16039;SDS011;8124;48.634;8.120;2023-03-01T20:17:00;50.67;;;39.58;;
16039;SDS011;8124;48.634;8.120;2023-03-01T20:22:02;55.53;;;44.17;;
16039;SDS011;8124;48.634;8.120;2023-03-01T20:27:07;59.38;;;44.35;;
16039;SDS011;8124;48.634;8.120;2023-03-01T20:32:10;56.28;;;43.75;;
16039;SDS011;8124;48.634;8.120;2023-03-01T20:37:14;54.47;;;44.20;;
16039;SDS011;8124;48.634;8.120;2023-03-01T20:42:18;54.00;;;43.13;;
16039;SDS011;8124;48.634;8.120;2023-03-01T20:47:21;51.70;;;42.63;;
16039;SDS011;8124;48.634;8.120;2023-03-01T20:52:24;54.33;;;42.72;;
16039;SDS011;8124;48.634;8.120;2023-03-01T20:57:35;49.95;;;40.65;;
16039;SDS011;8124;48.634;8.120;2023-03-01T21:02:38;55.13;;;43.53;;
16039;SDS011;8124;48.634;8.120;2023-03-01T21:07:41;51.63;;;42.43;;
16039;SDS011;8124;48.634;8.120;2023-03-01T21:12:47;53.50;;;41.90;;
16039;SDS011;8124;48.634;8.120;2023-03-01T21:17:50;53.30;;;43.53;;
16039;SDS011;8124;48.634;8.120;2023-03-01T21:22:53;52.97;;;41.77;;
16039;SDS011;8124;48.634;8.120;2023-03-01T21:27:57;53.37;;;41.87;;
16039;SDS011;8124;48.634;8.120;2023-03-01T21:33:00;58.63;;;41.83;;
16039;SDS011;8124;48.634;8.120;2023-03-01T21:38:02;52.60;;;42.17;;
16039;SDS011;8124;48.634;8.120;2023-03-01T21:43:07;53.93;;;41.40;;
16039;SDS011;8124;48.634;8.120;2023-03-01T21:48:10;52.90;;;41.53;;
16039;SDS011;8124;48.634;8.120;2023-03-01T21:53:13;52.17;;;41.27;;
16039;SDS011;8124;48.634;8.120;2023-03-01T21:58:17;50.93;;;40.23;;
16039;SDS011;8124;48.634;8.120;2023-03-01T22:03:21;52.27;;;41.47;;
16039;SDS011;8124;48.634;8.120;2023-03-01T22:08:24;55.30;;;42.30;;
16039;SDS011;8124;48.634;8.120;2023-03-01T22:13:29;52.87;;;41.63;;
16039;SDS011;8124;48.634;8.120;2023-03-01T22:18:32;51.47;;;41.90;;
16039;SDS011;8124;48.634;8.120;2023-03-01T22:23:35;52.07;;;40.00;;
16039;SDS011;8124;48.634;8.120;2023-03-01T22:28:40;51.67;;;41.17;;
16039;SDS011;8124;48.634;8.120;2023-03-01T22:33:46;51.10;;;41.20;;
16039;SDS011;8124;48.634;8.120;2023-03-01T22:38:49;53.90;;;40.73;;
16039;SDS011;8124;48.634;8.120;2023-03-01T22:43:57;48.87;;;39.83;;
16039;SDS011;8124;48.634;8.120;2023-03-01T22:49:00;50.77;;;40.10;;
16039;SDS011;8124;48.634;8.120;2023-03-01T22:54:05;50.70;;;40.53;;
16039;SDS011;8124;48.634;8.120;2023-03-01T22:59:11;52.93;;;41.30;;
16039;SDS011;8124;48.634;8.120;2023-03-01T23:04:16;51.87;;;41.00;;
16039;SDS011;8124;48.634;8.120;2023-03-01T23:09:22;49.40;;;40.17;;
16039;SDS011;8124;48.634;8.120;2023-03-01T23:14:28;48.73;;;40.03;;
16039;SDS011;8124;48.634;8.120;2023-03-01T23:19:32;51.90;;;40.33;;
16039;SDS011;8124;48.634;8.120;2023-03-01T23:24:35;47.53;;;38.83;;
16039;SDS011;8124;48.634;8.120;2023-03-01T23:29:39;50.70;;;40.27;;
16039;SDS011;8124;48.634;8.120;2023-03-01T23:34:42;48.40;;;38.40;;
16039;SDS011;8124;48.634;8.120;2023-03-01T23:39:45;51.57;;;40.17;;
16039;SDS011;8124;48.634;8.120;2023-03-01T23:44:49;54.60;;;41.73;;
16039;SDS011;8124;48.634;8.120;2023-03-01T23:49:52;52.73;;;41.63;;
16039;SDS011;8124;48.634;8.120;2023-03-01T23:54:57;51.87;;;40.60;;
